createdAt,value
2022-12-08T00:00:13.727Z,91.46
2022-12-08T00:01:13.738Z,91.46
2022-12-08T00:02:13.870Z,91.46
2022-12-08T00:03:13.809Z,91.46
2022-12-08T00:04:13.726Z,91.35
2022-12-08T00:05:13.645Z,91.35
2022-12-08T00:06:13.638Z,91.35
2022-12-08T00:07:13.629Z,91.25
2022-12-08T00:08:13.703Z,91.25
2022-12-08T00:09:13.596Z,91.25
2022-12-08T00:10:40.248Z,91.25
2022-12-08T00:11:14.571Z,91.14
2022-12-08T00:12:13.572Z,91.04
2022-12-08T00:13:13.551Z,91.04
2022-12-08T00:14:13.537Z,91.04
2022-12-08T00:15:13.529Z,91.04
2022-12-08T00:16:13.548Z,91.04
2022-12-08T00:17:13.495Z,90.93
2022-12-08T00:18:13.505Z,90.93
2022-12-08T00:19:13.490Z,90.93
2022-12-08T00:20:13.470Z,90.93
2022-12-08T00:21:13.473Z,90.83
2022-12-08T00:22:13.475Z,90.83
2022-12-08T00:23:13.472Z,90.83
2022-12-08T00:24:13.410Z,90.83
2022-12-08T00:25:13.391Z,90.72
2022-12-08T00:26:13.411Z,90.72
2022-12-08T00:27:13.369Z,90.72
2022-12-08T00:28:13.382Z,90.72
2022-12-08T00:29:17.336Z,90.72
2022-12-08T00:30:13.340Z,90.72
2022-12-08T00:31:13.356Z,90.72
2022-12-08T00:32:13.515Z,90.72
2022-12-08T00:33:13.300Z,90.77
2022-12-08T00:34:13.321Z,90.77
2022-12-08T00:35:13.300Z,90.77
2022-12-08T00:36:13.258Z,90.77
2022-12-08T00:37:13.247Z,90.77
2022-12-08T00:38:13.259Z,90.77
2022-12-08T00:39:13.219Z,90.87
2022-12-08T00:40:13.207Z,90.87
2022-12-08T00:41:13.242Z,90.87
2022-12-08T00:42:13.207Z,90.97
2022-12-08T00:43:13.185Z,91.08
2022-12-08T00:44:13.157Z,91.08
2022-12-08T00:45:13.163Z,91.08
2022-12-08T00:46:13.191Z,91.18
2022-12-08T00:47:13.124Z,91.18
2022-12-08T00:48:13.116Z,91.18
2022-12-08T00:49:13.085Z,91.18
2022-12-08T00:50:13.093Z,91.18
2022-12-08T00:51:13.055Z,91.18
2022-12-08T00:52:13.055Z,91.28
2022-12-08T00:53:13.045Z,91.28
2022-12-08T00:54:13.035Z,91.28
2022-12-08T00:55:13.024Z,91.39
2022-12-08T00:56:13.033Z,91.39
2022-12-08T00:57:12.994Z,91.39
2022-12-08T00:58:13.248Z,91.50
2022-12-08T00:59:13.329Z,91.39
2022-12-08T01:00:12.997Z,91.39
2022-12-08T01:01:13.432Z,91.39
2022-12-08T01:02:13.642Z,91.39
2022-12-08T01:03:12.977Z,91.39
2022-12-08T01:04:12.905Z,91.39
2022-12-08T01:05:12.891Z,91.39
2022-12-08T01:06:12.904Z,91.39
2022-12-08T01:07:12.887Z,91.39
2022-12-08T01:08:12.911Z,91.28
2022-12-08T01:09:12.834Z,91.28
2022-12-08T01:10:12.853Z,91.28
2022-12-08T01:11:12.803Z,91.28
2022-12-08T01:12:12.806Z,91.18
2022-12-08T01:13:12.804Z,91.18
2022-12-08T01:14:12.962Z,91.18
2022-12-08T01:15:12.762Z,91.18
2022-12-08T01:16:12.795Z,91.18
2022-12-08T01:17:12.821Z,91.08
2022-12-08T01:18:12.749Z,91.08
2022-12-08T01:19:12.721Z,91.08
2022-12-08T01:20:12.704Z,91.08
2022-12-08T01:21:12.690Z,91.08
2022-12-08T01:22:12.680Z,91.08
2022-12-08T01:23:12.676Z,91.08
2022-12-08T01:24:12.661Z,91.08
2022-12-08T01:25:12.649Z,91.08
2022-12-08T01:26:12.628Z,91.08
2022-12-08T01:27:12.609Z,91.08
2022-12-08T01:28:12.638Z,91.04
2022-12-08T01:29:12.609Z,91.04
2022-12-08T01:30:12.579Z,91.04
2022-12-08T01:31:12.587Z,91.14
2022-12-08T01:32:12.558Z,91.14
2022-12-08T01:33:12.551Z,91.14
2022-12-08T01:34:12.695Z,91.14
2022-12-08T01:35:12.649Z,91.14
2022-12-08T01:36:12.634Z,91.14
2022-12-08T01:37:12.601Z,91.14
2022-12-08T01:38:12.619Z,91.14
2022-12-08T01:39:12.572Z,91.14
2022-12-08T01:40:12.596Z,91.04
2022-12-08T01:41:12.528Z,91.04
2022-12-08T01:42:12.568Z,91.14
2022-12-08T01:43:12.508Z,91.14
2022-12-08T01:44:12.463Z,91.14
2022-12-08T01:45:12.710Z,91.14
2022-12-08T01:46:12.411Z,91.14
2022-12-08T01:47:12.390Z,91.14
2022-12-08T01:48:12.708Z,91.14
2022-12-08T01:49:12.334Z,91.14
2022-12-08T01:50:12.322Z,91.14
2022-12-08T01:51:12.305Z,91.14
2022-12-08T01:52:12.296Z,91.14
2022-12-08T01:53:12.301Z,91.14
2022-12-08T01:54:12.288Z,91.14
2022-12-08T01:55:12.273Z,91.14
2022-12-08T01:56:12.255Z,91.14
2022-12-08T01:57:12.255Z,91.14
2022-12-08T01:58:12.267Z,91.14
2022-12-08T01:59:12.205Z,91.14
2022-12-08T02:00:12.202Z,91.14
2022-12-08T02:01:12.233Z,91.14
2022-12-08T02:02:12.220Z,91.25
2022-12-08T02:03:12.175Z,91.25
2022-12-08T02:04:12.161Z,91.25
2022-12-08T02:05:12.154Z,91.25
2022-12-08T02:06:12.204Z,91.35
2022-12-08T02:07:12.099Z,91.25
2022-12-08T02:08:12.243Z,91.35
2022-12-08T02:09:12.082Z,91.35
2022-12-08T02:10:12.237Z,91.35
2022-12-08T02:11:12.222Z,91.35
2022-12-08T02:12:12.212Z,91.35
2022-12-08T02:13:12.251Z,91.35
2022-12-08T02:14:12.949Z,91.46
2022-12-08T02:15:12.003Z,91.46
2022-12-08T02:16:12.047Z,91.46
2022-12-08T02:17:11.978Z,91.46
2022-12-08T02:18:11.981Z,91.46
2022-12-08T02:20:12.960Z,91.46
2022-12-08T02:21:11.942Z,91.56
2022-12-08T02:22:11.940Z,91.56
2022-12-08T02:23:11.961Z,91.56
2022-12-08T02:24:11.900Z,91.56
2022-12-08T02:25:11.879Z,91.56
2022-12-08T02:26:11.876Z,91.56
2022-12-08T02:27:11.865Z,91.66
2022-12-08T02:28:11.863Z,91.56
2022-12-08T02:29:11.825Z,91.56
2022-12-08T02:30:11.850Z,91.56
2022-12-08T02:31:11.861Z,91.46
2022-12-08T02:32:11.807Z,91.46
2022-12-08T02:33:11.794Z,91.46
2022-12-08T02:34:11.788Z,91.46
2022-12-08T02:35:11.754Z,91.46
2022-12-08T02:36:11.765Z,91.46
2022-12-08T02:37:11.745Z,91.46
2022-12-08T02:38:11.750Z,91.41
2022-12-08T02:39:11.705Z,91.41
2022-12-08T02:40:11.804Z,91.41
2022-12-08T02:41:11.680Z,91.41
2022-12-08T02:42:11.675Z,91.52
2022-12-08T02:43:11.654Z,91.41
2022-12-08T02:44:11.644Z,91.41
2022-12-08T02:45:11.625Z,91.41
2022-12-08T02:46:11.661Z,91.41
2022-12-08T02:47:11.608Z,91.41
2022-12-08T02:48:11.602Z,91.52
2022-12-08T02:49:11.574Z,91.41
2022-12-08T02:50:11.627Z,91.41
2022-12-08T02:51:11.543Z,91.41
2022-12-08T02:52:11.544Z,91.41
2022-12-08T02:53:42.938Z,91.41
2022-12-08T02:54:42.928Z,91.41
2022-12-08T02:55:42.912Z,91.52
2022-12-08T02:56:42.908Z,91.41
2022-12-08T02:57:42.897Z,91.41
2022-12-08T02:58:42.877Z,91.31
2022-12-08T02:59:42.858Z,91.31
2022-12-08T03:00:42.850Z,91.31
2022-12-08T03:01:42.876Z,91.41
2022-12-08T03:02:42.897Z,91.41
2022-12-08T03:03:42.820Z,91.31
2022-12-08T03:04:42.796Z,91.31
2022-12-08T03:05:42.793Z,91.31
2022-12-08T03:06:42.791Z,91.31
2022-12-08T03:07:42.858Z,91.31
2022-12-08T03:08:42.763Z,91.31
2022-12-08T03:09:42.738Z,91.31
2022-12-08T03:10:42.725Z,91.31
2022-12-08T03:11:42.705Z,91.31
2022-12-08T03:12:42.723Z,91.31
2022-12-08T03:13:42.705Z,91.31
2022-12-08T03:14:42.702Z,91.31
2022-12-08T03:15:42.711Z,91.20
2022-12-08T03:16:42.676Z,91.20
2022-12-08T03:17:42.655Z,91.20
2022-12-08T03:18:44.154Z,91.20
2022-12-08T03:19:42.642Z,91.20
2022-12-08T03:20:42.600Z,91.10
2022-12-08T03:21:42.601Z,91.20
2022-12-08T03:22:42.624Z,91.20
2022-12-08T03:23:42.560Z,91.20
2022-12-08T03:24:42.543Z,91.31
2022-12-08T03:25:42.532Z,91.31
2022-12-08T03:26:42.513Z,91.20
2022-12-08T03:27:42.527Z,91.20
2022-12-08T03:28:42.492Z,91.20
2022-12-08T03:29:42.471Z,91.20
2022-12-08T03:30:42.509Z,91.20
2022-12-08T03:31:42.519Z,91.20
2022-12-08T03:32:42.473Z,91.10
2022-12-08T03:33:42.434Z,91.10
2022-12-08T03:34:42.423Z,91.10
2022-12-08T03:35:42.411Z,91.10
2022-12-08T03:36:42.399Z,91.20
2022-12-08T03:37:42.391Z,91.20
2022-12-08T03:38:42.394Z,91.10
2022-12-08T03:39:42.372Z,91.10
2022-12-08T03:40:42.334Z,91.10
2022-12-08T03:41:42.320Z,91.10
2022-12-08T03:42:42.343Z,91.10
2022-12-08T03:43:42.293Z,91.10
2022-12-08T03:44:42.287Z,91.10
2022-12-08T03:45:42.279Z,91.10
2022-12-08T03:46:42.272Z,91.10
2022-12-08T03:47:42.260Z,91.10
2022-12-08T03:48:42.250Z,91.00
2022-12-08T03:49:42.218Z,91.00
2022-12-08T03:50:42.209Z,90.89
2022-12-08T03:51:42.189Z,90.89
2022-12-08T03:52:42.200Z,90.89
2022-12-08T03:53:42.203Z,90.79
2022-12-08T03:54:42.157Z,90.79
2022-12-08T03:55:42.154Z,90.79
2022-12-08T03:56:42.131Z,90.69
2022-12-08T03:57:42.138Z,90.69
2022-12-08T03:58:42.112Z,90.58
2022-12-08T03:59:42.091Z,90.58
2022-12-08T04:00:42.105Z,90.58
2022-12-08T04:01:42.112Z,90.58
2022-12-08T04:02:42.106Z,90.58
2022-12-08T04:03:42.037Z,90.58
2022-12-08T04:04:42.030Z,90.58
2022-12-08T04:05:42.017Z,90.58
2022-12-08T04:06:42.026Z,90.58
2022-12-08T04:07:42.061Z,90.58
2022-12-08T04:08:41.983Z,90.58
2022-12-08T04:09:41.994Z,90.58
2022-12-08T04:10:41.963Z,90.47
2022-12-08T04:11:41.946Z,90.47
2022-12-08T04:12:41.961Z,90.47
2022-12-08T04:13:41.917Z,90.37
2022-12-08T04:14:41.896Z,90.37
2022-12-08T04:15:41.920Z,90.37
2022-12-08T04:16:41.889Z,90.26
2022-12-08T04:17:41.872Z,90.26
2022-12-08T04:18:41.847Z,90.26
2022-12-08T04:19:41.872Z,90.26
2022-12-08T04:20:41.831Z,90.26
2022-12-08T04:21:41.802Z,90.26
2022-12-08T04:22:41.813Z,90.26
2022-12-08T04:23:41.793Z,90.26
2022-12-08T04:24:41.792Z,90.31
2022-12-08T04:25:41.755Z,90.41
2022-12-08T04:26:41.763Z,90.41
2022-12-08T04:27:41.739Z,90.41
2022-12-08T04:28:41.762Z,90.52
2022-12-08T04:29:41.714Z,90.52
2022-12-08T04:30:41.691Z,90.52
2022-12-08T04:31:41.735Z,90.62
2022-12-08T04:32:47.083Z,90.62
2022-12-08T04:33:42.650Z,90.72
2022-12-08T04:34:41.648Z,90.72
2022-12-08T04:35:41.623Z,90.72
2022-12-08T04:36:41.614Z,90.72
2022-12-08T04:37:41.648Z,90.72
2022-12-08T04:38:41.587Z,90.83
2022-12-08T04:39:41.580Z,90.83
2022-12-08T04:40:41.560Z,90.83
2022-12-08T04:41:41.541Z,90.83
2022-12-08T04:42:41.555Z,90.72
2022-12-08T04:43:41.528Z,90.83
2022-12-08T04:44:41.521Z,90.93
2022-12-08T04:45:41.531Z,90.93
2022-12-08T04:46:43.623Z,90.93
2022-12-08T04:47:41.488Z,91.04
2022-12-08T04:48:41.459Z,91.04
2022-12-08T04:49:41.452Z,91.14
2022-12-08T04:50:41.428Z,91.14
2022-12-08T04:51:41.417Z,91.14
2022-12-08T04:52:41.435Z,91.14
2022-12-08T04:53:46.299Z,91.14
2022-12-08T04:54:42.377Z,91.25
2022-12-08T04:55:41.356Z,91.25
2022-12-08T04:56:41.358Z,91.35
2022-12-08T04:57:41.349Z,91.35
2022-12-08T04:58:41.336Z,91.35
2022-12-08T04:59:41.334Z,91.35
2022-12-08T05:00:41.321Z,91.35
2022-12-08T05:01:41.370Z,91.46
2022-12-08T05:02:41.337Z,91.46
2022-12-08T05:03:41.275Z,91.46
2022-12-08T05:04:41.254Z,91.46
2022-12-08T05:05:41.245Z,91.56
2022-12-08T05:06:41.238Z,91.56
2022-12-08T05:07:41.285Z,91.56
2022-12-08T05:08:41.214Z,91.56
2022-12-08T05:09:41.206Z,91.56
2022-12-08T05:10:41.201Z,91.56
2022-12-08T05:11:46.846Z,91.56
2022-12-08T05:12:42.163Z,91.66
2022-12-08T05:13:41.147Z,91.66
2022-12-08T05:14:41.129Z,91.66
2022-12-08T05:15:41.111Z,91.77
2022-12-08T05:16:41.186Z,91.77
2022-12-08T05:17:41.094Z,91.77
2022-12-08T05:18:41.105Z,91.87
2022-12-08T05:19:41.054Z,91.87
2022-12-08T05:20:41.052Z,91.87
2022-12-08T05:21:41.043Z,91.87
2022-12-08T05:22:41.021Z,91.97
2022-12-08T05:23:41.020Z,91.97
2022-12-08T05:24:46.993Z,92.08
2022-12-08T05:25:42.012Z,92.08
2022-12-08T05:26:40.973Z,92.08
2022-12-08T05:27:40.941Z,92.08
2022-12-08T05:28:42.643Z,92.18
2022-12-08T05:29:40.921Z,92.18
2022-12-08T05:30:40.913Z,92.18
2022-12-08T05:31:40.946Z,92.18
2022-12-08T05:32:40.910Z,92.18
2022-12-08T05:33:40.919Z,92.18
2022-12-08T05:34:40.879Z,92.18
2022-12-08T05:35:40.850Z,92.29
2022-12-08T05:36:40.841Z,92.29
2022-12-08T05:37:40.854Z,92.29
2022-12-08T05:38:40.839Z,92.29
2022-12-08T05:39:40.800Z,92.39
2022-12-08T05:40:40.820Z,92.39
2022-12-08T05:41:40.776Z,92.29
2022-12-08T05:42:40.784Z,92.29
2022-12-08T05:43:40.770Z,92.29
2022-12-08T05:44:40.738Z,92.29
2022-12-08T05:45:40.786Z,92.29
2022-12-08T05:46:40.709Z,92.39
2022-12-08T05:47:40.696Z,92.39
2022-12-08T05:48:40.699Z,92.39
2022-12-08T05:49:40.675Z,92.39
2022-12-08T05:50:40.669Z,92.49
2022-12-08T05:51:40.648Z,92.49
2022-12-08T05:52:40.658Z,92.60
2022-12-08T05:53:40.624Z,92.70
2022-12-08T05:54:40.635Z,92.60
2022-12-08T05:55:40.585Z,92.49
2022-12-08T05:56:40.574Z,92.60
2022-12-08T05:57:40.584Z,92.70
2022-12-08T05:58:40.587Z,92.70
2022-12-08T05:59:40.547Z,92.64
2022-12-08T06:00:40.586Z,92.74
2022-12-08T06:01:40.542Z,92.74
2022-12-08T06:02:40.710Z,92.74
2022-12-08T06:03:40.524Z,92.74
2022-12-08T06:04:40.473Z,92.74
2022-12-08T06:05:40.464Z,92.74
2022-12-08T06:06:40.452Z,92.74
2022-12-08T06:07:40.479Z,92.74
2022-12-08T06:08:40.471Z,92.74
2022-12-08T06:09:40.456Z,92.85
2022-12-08T06:10:40.401Z,92.74
2022-12-08T06:11:40.411Z,92.74
2022-12-08T06:12:40.387Z,92.74
2022-12-08T06:13:40.385Z,92.74
2022-12-08T06:14:40.350Z,92.74
2022-12-08T06:15:40.352Z,92.74
2022-12-08T06:16:40.377Z,92.79
2022-12-08T06:17:40.323Z,92.79
2022-12-08T06:18:40.327Z,92.79
2022-12-08T06:19:40.310Z,92.79
2022-12-08T06:20:40.284Z,92.79
2022-12-08T06:21:40.249Z,92.68
2022-12-08T06:22:40.231Z,92.68
2022-12-08T06:23:40.247Z,92.68
2022-12-08T06:24:40.218Z,92.68
2022-12-08T06:25:40.200Z,92.79
2022-12-08T06:26:40.187Z,92.79
2022-12-08T06:27:40.177Z,92.79
2022-12-08T06:28:40.196Z,92.83
2022-12-08T06:29:40.147Z,92.83
2022-12-08T06:30:40.153Z,92.83
2022-12-08T06:31:40.151Z,92.83
2022-12-08T06:32:40.120Z,92.83
2022-12-08T06:33:40.109Z,92.93
2022-12-08T06:34:40.084Z,92.93
2022-12-08T06:35:40.073Z,93.04
2022-12-08T06:36:40.077Z,93.14
2022-12-08T06:37:40.051Z,93.18
2022-12-08T06:38:43.373Z,93.18
2022-12-08T06:39:40.048Z,93.18
2022-12-08T06:40:39.996Z,93.18
2022-12-08T06:41:39.998Z,93.18
2022-12-08T06:42:39.990Z,93.40
2022-12-08T06:43:39.989Z,93.40
2022-12-08T06:44:40.001Z,93.40
2022-12-08T06:45:39.958Z,93.50
2022-12-08T06:46:39.924Z,93.65
2022-12-08T06:47:39.965Z,93.96
2022-12-08T06:48:39.908Z,94.17
2022-12-08T06:49:39.885Z,94.17
2022-12-08T06:50:39.876Z,94.06
2022-12-08T06:51:39.855Z,94.27
2022-12-08T06:52:49.365Z,94.37
2022-12-08T06:53:40.854Z,94.48
2022-12-08T06:54:39.860Z,94.58
2022-12-08T06:55:58.332Z,94.48
2022-12-08T06:56:40.803Z,94.48
2022-12-08T06:57:39.773Z,94.37
2022-12-08T06:58:39.783Z,94.52
2022-12-08T06:59:39.823Z,94.63
2022-12-08T07:00:39.779Z,95.21
2022-12-08T07:01:39.768Z,95.52
2022-12-08T07:02:39.817Z,95.52
2022-12-08T07:03:39.712Z,95.52
2022-12-08T07:04:39.681Z,95.42
2022-12-08T07:05:39.684Z,95.42
2022-12-08T07:06:39.661Z,95.42
2022-12-08T07:07:39.891Z,95.36
2022-12-08T07:08:39.658Z,95.36
2022-12-08T07:09:39.713Z,95.46
2022-12-08T07:10:39.610Z,95.46
2022-12-08T07:11:39.620Z,95.36
2022-12-08T07:12:39.578Z,95.36
2022-12-08T07:13:39.613Z,95.46
2022-12-08T07:14:39.578Z,95.46
2022-12-08T07:15:39.539Z,95.52
2022-12-08T07:16:39.611Z,95.56
2022-12-08T07:17:39.538Z,95.56
2022-12-08T07:18:39.533Z,95.42
2022-12-08T07:19:39.499Z,95.52
2022-12-08T07:20:39.477Z,95.52
2022-12-08T07:21:39.477Z,95.52
2022-12-08T07:22:39.450Z,95.52
2022-12-08T07:23:39.447Z,95.62
2022-12-08T07:24:39.421Z,95.73
2022-12-08T07:25:39.437Z,95.73
2022-12-08T07:26:39.398Z,95.83
2022-12-08T07:27:39.407Z,95.83
2022-12-08T07:28:39.382Z,95.83
2022-12-08T07:29:39.378Z,95.83
2022-12-08T07:30:39.456Z,95.83
2022-12-08T07:31:39.335Z,95.73
2022-12-08T07:32:39.324Z,95.73
2022-12-08T07:33:39.330Z,95.83
2022-12-08T07:34:39.345Z,95.83
2022-12-08T07:35:39.309Z,95.73
2022-12-08T07:36:39.265Z,95.73
2022-12-08T07:37:39.257Z,95.73
2022-12-08T07:38:39.272Z,95.73
2022-12-08T07:39:39.256Z,95.73
2022-12-08T07:40:39.206Z,95.83
2022-12-08T07:41:39.227Z,95.83
2022-12-08T07:42:39.191Z,95.73
2022-12-08T07:43:39.204Z,95.62
2022-12-08T07:44:39.172Z,95.62
2022-12-08T07:45:39.147Z,95.73
2022-12-08T07:46:39.193Z,95.73
2022-12-08T07:47:39.126Z,95.73
2022-12-08T07:48:39.203Z,95.94
2022-12-08T07:49:39.097Z,96.00
2022-12-08T07:50:39.112Z,96.00
2022-12-08T07:51:39.095Z,95.89
2022-12-08T07:52:39.067Z,95.89
2022-12-08T07:53:42.305Z,95.89
2022-12-08T07:54:39.049Z,95.89
2022-12-08T07:55:39.022Z,95.89
2022-12-08T07:56:39.022Z,95.79
2022-12-08T07:57:39.001Z,95.79
2022-12-08T07:58:39.009Z,95.75
2022-12-08T07:59:38.960Z,95.75
2022-12-08T08:00:39.006Z,95.75
2022-12-08T08:01:39.065Z,95.75
2022-12-08T08:02:39.081Z,95.85
2022-12-08T08:03:38.930Z,95.70
2022-12-08T08:04:38.941Z,95.70
2022-12-08T08:05:38.889Z,95.70
2022-12-08T08:06:38.873Z,95.60
2022-12-08T08:07:38.945Z,95.50
2022-12-08T08:08:38.853Z,95.25
2022-12-08T08:09:38.847Z,95.14
2022-12-08T08:10:38.820Z,95.03
2022-12-08T08:11:38.823Z,94.78
2022-12-08T08:12:38.790Z,94.47
2022-12-08T08:13:38.786Z,94.26
2022-12-08T08:14:38.766Z,94.01
2022-12-08T08:15:38.896Z,93.80
2022-12-08T08:16:39.070Z,93.45
2022-12-08T08:17:38.953Z,93.03
2022-12-08T08:18:38.728Z,92.78
2022-12-08T08:19:38.706Z,92.47
2022-12-08T08:20:38.709Z,92.01
2022-12-08T08:21:46.512Z,91.24
2022-12-08T08:22:39.655Z,90.58
2022-12-08T08:23:45.743Z,90.17
2022-12-08T08:24:44.461Z,89.81
2022-12-08T08:25:39.613Z,89.29
2022-12-08T08:26:38.640Z,88.42
2022-12-08T08:27:38.602Z,88.32
2022-12-08T08:28:38.601Z,88.11
2022-12-08T08:29:38.579Z,87.76
2022-12-08T08:30:38.623Z,87.24
2022-12-08T08:31:38.643Z,87.14
2022-12-08T08:32:38.590Z,87.35
2022-12-08T08:33:38.542Z,87.20
2022-12-08T08:34:38.515Z,86.54
2022-12-08T08:35:38.490Z,85.92
2022-12-08T08:36:38.508Z,84.47
2022-12-08T08:37:38.483Z,84.58
2022-12-08T08:38:38.661Z,84.88
2022-12-08T08:39:38.449Z,85.19
2022-12-08T08:40:38.431Z,84.16
2022-12-08T08:41:38.429Z,84.37
2022-12-08T08:42:38.412Z,84.68
2022-12-08T08:43:38.996Z,84.88
2022-12-08T08:44:38.372Z,84.68
2022-12-08T08:45:38.358Z,84.16
2022-12-08T08:46:38.400Z,84.27
2022-12-08T08:47:38.337Z,83.95
2022-12-08T08:48:38.330Z,83.54
2022-12-08T08:49:38.327Z,83.54
2022-12-08T08:50:38.308Z,84.09
2022-12-08T08:51:38.279Z,83.78
2022-12-08T08:52:38.286Z,83.78
2022-12-08T08:53:38.316Z,83.99
2022-12-08T08:54:38.245Z,83.78
2022-12-08T08:55:38.256Z,84.20
2022-12-08T08:56:38.216Z,83.83
2022-12-08T08:57:38.195Z,84.23
2022-12-08T08:58:38.186Z,84.55
2022-12-08T08:59:38.186Z,84.72
2022-12-08T09:00:38.156Z,84.92
2022-12-08T09:01:38.247Z,84.61
2022-12-08T09:02:38.125Z,84.51
2022-12-08T09:03:38.133Z,84.09
2022-12-08T09:04:38.159Z,84.30
2022-12-08T09:05:38.184Z,84.41
2022-12-08T09:06:38.229Z,84.34
2022-12-08T09:07:38.179Z,84.55
2022-12-08T09:08:38.083Z,84.55
2022-12-08T09:09:38.047Z,84.23
2022-12-08T09:10:38.024Z,84.13
2022-12-08T09:11:38.009Z,83.62
2022-12-08T09:12:37.993Z,83.83
2022-12-08T09:13:38.011Z,83.72
2022-12-08T09:14:38.009Z,83.72
2022-12-08T09:15:38.035Z,84.03
2022-12-08T09:16:42.170Z,84.13
2022-12-08T09:17:37.923Z,84.23
2022-12-08T09:18:37.923Z,84.23
2022-12-08T09:19:37.916Z,83.99
2022-12-08T09:20:37.882Z,83.99
2022-12-08T09:21:37.873Z,83.64
2022-12-08T09:22:37.882Z,83.29
2022-12-08T09:23:37.852Z,81.46
2022-12-08T09:24:37.844Z,80.90
2022-12-08T09:25:37.839Z,80.80
2022-12-08T09:26:37.832Z,80.94
2022-12-08T09:27:37.811Z,81.05
2022-12-08T09:28:37.816Z,80.84
2022-12-08T09:29:37.785Z,80.22
2022-12-08T09:30:37.750Z,80.36
2022-12-08T09:31:37.828Z,81.09
2022-12-08T09:32:37.720Z,81.49
2022-12-08T09:33:37.727Z,81.81
2022-12-08T09:34:37.708Z,81.91
2022-12-08T09:35:37.688Z,81.81
2022-12-08T09:36:37.669Z,82.29
2022-12-08T09:37:37.668Z,82.60
2022-12-08T09:38:37.729Z,82.90
2022-12-08T09:39:37.658Z,80.84
2022-12-08T09:40:37.617Z,80.22
2022-12-08T09:41:42.057Z,79.60
2022-12-08T09:42:38.588Z,80.32
2022-12-08T09:43:37.609Z,80.84
2022-12-08T09:44:37.591Z,81.77
2022-12-08T09:45:37.558Z,82.18
2022-12-08T09:46:37.581Z,82.50
2022-12-08T09:47:37.529Z,82.60
2022-12-08T09:48:37.517Z,82.70
2022-12-08T09:49:37.510Z,82.70
2022-12-08T09:50:37.509Z,82.50
2022-12-08T09:51:37.486Z,81.67
2022-12-08T09:52:37.469Z,81.77
2022-12-08T09:53:37.464Z,81.56
2022-12-08T09:54:37.455Z,81.35
2022-12-08T09:55:37.439Z,81.35
2022-12-08T09:56:37.406Z,81.67
2022-12-08T09:57:37.404Z,80.94
2022-12-08T09:58:37.385Z,80.53
2022-12-08T09:59:37.377Z,81.05
2022-12-08T10:00:37.347Z,80.94
2022-12-08T10:01:37.398Z,80.32
2022-12-08T10:02:37.326Z,80.94
2022-12-08T10:03:37.354Z,80.84
2022-12-08T10:04:37.369Z,81.05
2022-12-08T10:05:37.344Z,81.05
2022-12-08T10:06:37.304Z,81.35
2022-12-08T10:07:37.291Z,81.01
2022-12-08T10:08:37.483Z,81.01
2022-12-08T10:09:37.251Z,80.25
2022-12-08T10:10:37.454Z,79.90
2022-12-08T10:11:39.912Z,79.18
2022-12-08T10:12:44.121Z,78.14
2022-12-08T10:13:37.296Z,78.77
2022-12-08T10:14:37.172Z,79.18
2022-12-08T10:15:37.162Z,79.59
2022-12-08T10:16:37.187Z,78.97
2022-12-08T10:17:37.149Z,79.28
2022-12-08T10:18:37.301Z,79.32
2022-12-08T10:19:37.112Z,77.77
2022-12-08T10:20:37.092Z,77.77
2022-12-08T10:21:58.071Z,78.18
2022-12-08T10:22:42.836Z,79.22
2022-12-08T10:23:38.072Z,79.32
2022-12-08T10:24:37.042Z,79.63
2022-12-08T10:25:37.023Z,79.73
2022-12-08T10:26:37.012Z,79.22
2022-12-08T10:27:37.289Z,79.73
2022-12-08T10:28:42.946Z,79.87
2022-12-08T10:30:51.451Z,80.18
2022-12-08T10:31:51.493Z,80.08
2022-12-08T10:32:51.398Z,79.32
2022-12-08T10:33:51.397Z,79.15
2022-12-08T10:34:56.178Z,79.42
2022-12-08T10:35:52.356Z,79.87
2022-12-08T10:36:51.565Z,80.08
2022-12-08T10:37:51.348Z,79.66
2022-12-08T10:38:51.381Z,79.56
2022-12-08T10:39:51.317Z,79.77
2022-12-08T10:40:51.301Z,79.46
2022-12-08T10:41:51.284Z,79.36
2022-12-08T10:42:51.264Z,79.25
2022-12-08T10:43:51.273Z,78.22
2022-12-08T10:44:51.233Z,79.05
2022-12-08T10:45:51.236Z,79.05
2022-12-08T10:46:51.278Z,78.94
2022-12-08T10:47:55.395Z,79.46
2022-12-08T10:48:51.194Z,78.94
2022-12-08T10:49:51.185Z,78.94
2022-12-08T10:50:51.174Z,79.70
2022-12-08T10:51:51.170Z,79.70
2022-12-08T10:52:51.189Z,79.77
2022-12-08T10:53:51.144Z,79.77
2022-12-08T10:55:37.849Z,79.77
2022-12-08T10:55:51.088Z,79.66
2022-12-08T10:56:51.078Z,79.15
2022-12-08T10:57:51.073Z,79.36
2022-12-08T10:58:51.057Z,79.87
2022-12-08T10:59:51.036Z,79.87
2022-12-08T11:00:51.126Z,79.87
2022-12-08T11:01:51.103Z,79.66
2022-12-08T11:02:51.044Z,78.84
2022-12-08T11:03:50.999Z,79.25
2022-12-08T11:04:50.978Z,79.46
2022-12-08T11:05:50.966Z,79.46
2022-12-08T11:06:50.963Z,79.46
2022-12-08T11:07:50.959Z,78.74
2022-12-08T11:08:50.944Z,79.36
2022-12-08T11:09:50.924Z,79.46
2022-12-08T11:10:50.907Z,79.36
2022-12-08T11:11:50.874Z,79.46
2022-12-08T11:12:50.853Z,79.66
2022-12-08T11:13:50.945Z,79.56
2022-12-08T11:14:50.826Z,79.36
2022-12-08T11:15:50.833Z,79.46
2022-12-08T11:16:50.880Z,78.94
2022-12-08T11:17:54.738Z,79.25
2022-12-08T11:18:51.792Z,79.15
2022-12-08T11:19:50.783Z,78.94
2022-12-08T11:20:50.767Z,79.46
2022-12-08T11:21:50.760Z,79.46
2022-12-08T11:22:50.731Z,78.53
2022-12-08T11:23:50.731Z,78.63
2022-12-08T11:24:50.692Z,78.74
2022-12-08T11:25:50.699Z,78.74
2022-12-08T11:26:50.689Z,79.15
2022-12-08T11:27:50.690Z,79.25
2022-12-08T11:28:50.687Z,79.46
2022-12-08T11:29:50.631Z,79.56
2022-12-08T11:30:50.620Z,79.56
2022-12-08T11:31:50.693Z,79.66
2022-12-08T11:32:50.602Z,79.87
2022-12-08T11:33:50.597Z,79.87
2022-12-08T11:34:50.592Z,79.87
2022-12-08T11:35:50.550Z,79.87
2022-12-08T11:36:50.545Z,79.77
2022-12-08T11:37:50.521Z,79.46
2022-12-08T11:38:50.532Z,79.25
2022-12-08T11:39:50.501Z,79.56
2022-12-08T11:40:50.483Z,79.46
2022-12-08T11:41:50.473Z,78.63
2022-12-08T11:42:50.461Z,78.63
2022-12-08T11:43:50.483Z,78.74
2022-12-08T11:44:50.441Z,78.01
2022-12-08T11:45:50.493Z,78.32
2022-12-08T11:46:50.400Z,78.74
2022-12-08T11:47:55.631Z,78.63
2022-12-08T11:48:51.397Z,78.63
2022-12-08T11:49:50.379Z,78.63
2022-12-08T11:50:50.360Z,78.53
2022-12-08T11:51:50.340Z,78.11
2022-12-08T11:52:50.318Z,77.19
2022-12-08T11:53:50.322Z,77.91
2022-12-08T11:54:50.311Z,77.81
2022-12-08T11:55:50.423Z,78.11
2022-12-08T11:56:50.448Z,77.74
2022-12-08T11:57:50.300Z,77.64
2022-12-08T11:58:50.262Z,77.94
2022-12-08T11:59:50.238Z,78.36
2022-12-08T12:00:50.218Z,78.25
2022-12-08T12:01:50.255Z,77.94
2022-12-08T12:02:50.245Z,78.15
2022-12-08T12:03:50.249Z,78.15
2022-12-08T12:04:50.157Z,78.46
2022-12-08T12:06:12.933Z,78.25
2022-12-08T12:06:55.429Z,77.94
2022-12-08T12:07:50.156Z,78.36
2022-12-08T12:08:50.123Z,78.67
2022-12-08T12:09:50.100Z,78.88
2022-12-08T12:10:50.076Z,78.67
2022-12-08T12:11:50.077Z,78.67
2022-12-08T12:12:50.057Z,78.56
2022-12-08T12:13:50.047Z,78.98
2022-12-08T12:14:50.037Z,79.19
2022-12-08T12:15:50.016Z,79.19
2022-12-08T12:16:50.076Z,79.49
2022-12-08T12:17:49.996Z,79.70
2022-12-08T12:18:49.998Z,79.08
2022-12-08T12:19:49.965Z,78.98
2022-12-08T12:20:49.946Z,79.08
2022-12-08T12:21:49.944Z,79.08
2022-12-08T12:22:49.919Z,78.67
2022-12-08T12:23:49.928Z,78.53
2022-12-08T12:24:49.898Z,78.63
2022-12-08T12:25:49.878Z,78.84
2022-12-08T12:26:49.860Z,78.84
2022-12-08T12:27:49.853Z,78.63
2022-12-08T12:28:49.846Z,78.22
2022-12-08T12:29:55.304Z,78.84
2022-12-08T12:30:50.950Z,78.94
2022-12-08T12:31:49.917Z,78.84
2022-12-08T12:32:49.824Z,78.84
2022-12-08T12:33:49.831Z,78.32
2022-12-08T12:34:49.764Z,77.50
2022-12-08T12:35:49.757Z,77.29
2022-12-08T12:36:49.733Z,77.60
2022-12-08T12:37:49.722Z,77.81
2022-12-08T12:38:49.722Z,78.32
2022-12-08T12:39:49.705Z,78.53
2022-12-08T12:40:49.673Z,78.32
2022-12-08T12:41:49.686Z,78.63
2022-12-08T12:42:49.662Z,78.74
2022-12-08T12:43:49.655Z,78.63
2022-12-08T12:44:49.620Z,78.63
2022-12-08T12:45:49.660Z,78.53
2022-12-08T12:46:49.602Z,77.84
2022-12-08T12:47:55.610Z,77.94
2022-12-08T12:48:50.590Z,78.56
2022-12-08T12:49:49.563Z,78.56
2022-12-08T12:50:49.553Z,78.46
2022-12-08T12:51:49.542Z,78.36
2022-12-08T12:52:49.530Z,78.67
2022-12-08T12:53:49.533Z,78.77
2022-12-08T12:54:49.495Z,78.56